Time;durP1;ratioP1;P1;durP2;ratioP2;P2;SDS_P1;SDS_P2;PMS_P1;PMS_P2;Temp;Humidity;BMP_temperature;BMP_pressure;BME280_temperature;BME280_humidity;BME280_pressure;Samples;Min_cycle;Max_cycle;Signal;HPM_P1;HPM_P2
2021/01/31 00:01:11;;;;;;;12.43;9.80;;;;;;;0.03;84.92;97397.16;1829670;78;21489;-69
2021/01/31 00:03:38;;;;;;;13.72;9.30;;;;;;;-0.06;84.46;97395.75;1829693;78;21065;-69
2021/01/31 00:06:06;;;;;;;10.45;8.63;;;;;;;-0.20;82.79;97391.06;1829826;78;21532;-69
2021/01/31 00:08:33;;;;;;;12.70;8.95;;;;;;;-0.32;81.63;97390.19;1829742;78;21596;-70
2021/01/31 00:11:01;;;;;;;11.28;8.68;;;;;;;-0.42;81.63;97418.19;1829733;78;21194;-70
2021/01/31 00:13:29;;;;;;;11.28;8.00;;;;;;;-0.52;81.21;97397.18;1829655;78;21060;-70
2021/01/31 00:15:57;;;;;;;11.70;8.05;;;;;;;-0.62;80.62;97402.63;1829710;78;21060;-70
2021/01/31 00:18:28;;;;;;;9.48;7.10;;;;;;;-0.75;78.86;97387.66;1829727;78;21132;-69
2021/01/31 00:20:57;;;;;;;10.03;7.22;;;;;;;-0.94;78.25;97385.69;1829832;78;21557;-69
2021/01/31 00:23:26;;;;;;;9.35;7.20;;;;;;;-1.11;78.51;97391.27;1829711;78;21358;-70
2021/01/31 00:25:56;;;;;;;8.90;7.22;;;;;;;-1.24;78.97;97423.11;1829429;78;21136;-70
2021/01/31 00:28:25;;;;;;;8.63;6.80;;;;;;;-1.33;79.22;97442.47;1829758;78;21536;-70
2021/01/31 00:30:53;;;;;;;10.10;7.60;;;;;;;-1.42;79.42;97439.30;1829737;78;21207;-69
2021/01/31 00:33:25;;;;;;;10.93;7.40;;;;;;;-1.49;79.58;97467.53;1829741;78;21458;-70
2021/01/31 00:35:54;;;;;;;7.50;6.20;;;;;;;-1.56;79.27;97471.94;1829021;78;21432;-68
2021/01/31 00:38:24;;;;;;;8.50;6.72;;;;;;;-1.63;78.57;97445.39;1829649;78;21158;-69
2021/01/31 00:40:52;;;;;;;8.65;6.40;;;;;;;-1.70;78.08;97445.97;1829635;77;21565;-69
2021/01/31 00:43:20;;;;;;;7.90;6.50;;;;;;;-1.77;78.33;97445.72;1829756;78;21092;-69
2021/01/31 00:45:49;;;;;;;8.40;5.97;;;;;;;-1.85;77.74;97461.65;1829761;78;21056;-69
2021/01/31 00:48:17;;;;;;;7.70;6.58;;;;;;;-1.93;77.67;97469.46;1829748;78;21143;-69
2021/01/31 00:50:46;;;;;;;8.83;6.22;;;;;;;-1.98;77.87;97458.53;1829673;78;21136;-70
2021/01/31 00:53:15;;;;;;;8.45;5.55;;;;;;;-2.03;77.68;97474.83;1829115;78;21147;-70
2021/01/31 00:55:46;;;;;;;9.58;6.97;;;;;;;-2.10;77.75;97481.32;1829759;77;21627;-70
2021/01/31 00:58:15;;;;;;;9.28;7.17;;;;;;;-2.16;78.10;97505.64;1829740;78;21548;-70
2021/01/31 01:00:43;;;;;;;8.88;7.12;;;;;;;-2.21;78.63;97518.94;1829669;78;22043;-69
2021/01/31 01:03:13;;;;;;;8.43;6.37;;;;;;;-2.24;79.02;97515.19;1829662;78;21159;-68
2021/01/31 01:05:45;;;;;;;7.40;5.47;;;;;;;-2.26;78.34;97514.81;1809654;78;21147;-70
2021/01/31 01:08:13;;;;;;;6.08;4.90;;;;;;;-2.30;77.78;97528.03;1829751;78;21576;-69
2021/01/31 01:10:40;;;;;;;6.28;4.97;;;;;;;-2.30;77.29;97521.67;1829725;78;21057;-69
2021/01/31 01:13:08;;;;;;;7.72;5.22;;;;;;;-2.30;77.36;97514.03;1829669;78;23589;-69
2021/01/31 01:15:35;;;;;;;5.83;5.15;;;;;;;-2.30;77.30;97518.28;1829696;78;21536;-69
2021/01/31 01:18:04;;;;;;;7.33;5.83;;;;;;;-2.32;77.68;97510.67;1829669;78;21108;-69
2021/01/31 01:20:31;;;;;;;6.55;5.40;;;;;;;-2.32;77.82;97505.59;1829727;78;21477;-69
2021/01/31 01:23:00;;;;;;;7.72;5.87;;;;;;;-2.31;78.01;97512.79;1829729;78;21128;-69
2021/01/31 01:25:27;;;;;;;6.97;6.05;;;;;;;-2.32;77.99;97514.94;1829677;78;21497;-69
2021/01/31 01:27:55;;;;;;;7.00;5.90;;;;;;;-2.33;78.13;97523.00;1829600;78;21112;-69
2021/01/31 01:30:28;;;;;;;7.60;5.50;;;;;;;-2.32;78.15;97525.12;1829654;78;21123;-67
2021/01/31 01:32:57;;;;;;;7.60;5.95;;;;;;;-2.33;78.01;97533.63;1829973;78;21130;-68
2021/01/31 01:35:25;;;;;;;7.35;5.70;;;;;;;-2.34;77.98;97539.58;1829783;78;21152;-69
2021/01/31 01:37:53;;;;;;;6.50;4.80;;;;;;;-2.34;78.10;97540.86;1829772;78;22265;-67
2021/01/31 01:40:36;;;;;;;6.25;4.97;;;;;;;-2.36;77.59;97540.89;1829585;78;21076;-67
2021/01/31 01:43:05;;;;;;;7.05;5.30;;;;;;;-2.37;77.08;97551.09;1829554;78;21128;-67
2021/01/31 01:45:32;;;;;;;5.75;4.67;;;;;;;-2.38;77.45;97560.88;1829709;78;21183;-67
2021/01/31 01:48:08;;;;;;;6.10;4.75;;;;;;;-2.39;77.32;97573.20;1829676;78;21116;-67
2021/01/31 01:50:54;;;;;;;6.20;4.40;;;;;;;-2.39;77.42;97575.75;1821816;78;21159;-67
2021/01/31 01:53:23;;;;;;;6.45;4.72;;;;;;;-2.42;76.88;97590.67;1829726;78;21636;-68
2021/01/31 01:56:19;;;;;;;6.00;4.65;;;;;;;-2.45;77.09;97590.30;1829608;77;21049;-68
2021/01/31 01:58:47;;;;;;;5.62;4.62;;;;;;;-2.43;77.18;97595.36;1829688;78;21065;-67
2021/01/31 02:01:17;;;;;;;6.85;4.70;;;;;;;-2.46;77.07;97601.78;1799703;78;21540;-67
2021/01/31 02:03:44;;;;;;;6.00;5.05;;;;;;;-2.47;77.01;97617.92;1829652;78;21176;-67
2021/01/31 02:06:19;;;;;;;6.25;5.30;;;;;;;-2.51;76.83;97631.13;1799895;78;21076;-67
2021/01/31 02:08:47;;;;;;;5.78;4.65;;;;;;;-2.51;77.13;97640.05;1829652;78;21202;-67
2021/01/31 02:11:16;;;;;;;5.78;4.65;;;;;;;-2.50;77.20;97649.36;1829651;78;21592;-68
2021/01/31 02:13:49;;;;;;;7.70;5.75;;;;;;;-2.51;77.14;97652.77;1829773;78;21520;-67
2021/01/31 02:16:56;;;;;;;5.40;4.90;;;;;;;-2.51;77.44;97669.75;1829979;78;22273;-67
2021/01/31 02:20:09;;;;;;;4.35;3.70;;;;;;;-2.51;77.44;97669.75;1829533;78;21119;-67
2021/01/31 02:23:06;;;;;;;6.90;4.97;;;;;;;-2.53;75.45;97676.57;1829931;78;21107;-66
2021/01/31 02:26:08;;;;;;;5.03;4.12;;;;;;;-2.55;75.75;97680.41;1751149;81;21539;-67
2021/01/31 02:28:58;;;;;;;6.45;5.35;;;;;;;-2.56;75.77;97680.00;1829702;78;21080;-68
2021/01/31 02:31:53;;;;;;;5.97;5.30;;;;;;;-2.56;76.21;97694.00;1829555;78;21354;-68
2021/01/31 02:34:56;;;;;;;5.50;4.87;;;;;;;-2.56;76.26;97694.44;1829605;78;21049;-67
2021/01/31 02:37:55;;;;;;;5.78;4.87;;;;;;;-2.53;75.59;97716.02;1873663;76;22256;-67
2021/01/31 02:40:33;;;;;;;8.85;5.10;;;;;;;-2.59;75.87;97722.05;1841714;78;21458;-66
2021/01/31 02:43:11;;;;;;;6.37;5.08;;;;;;;-2.60;75.92;97727.20;1841634;77;21247;-66
2021/01/31 02:45:48;;;;;;;6.92;5.70;;;;;;;-2.61;76.03;97742.90;1841512;78;21494;-67
2021/01/31 02:48:30;;;;;;;6.53;5.37;;;;;;;-2.62;76.23;97750.55;1841641;77;20977;-67
2021/01/31 02:51:05;;;;;;;5.75;4.47;;;;;;;-2.63;75.75;97753.97;1811859;78;21034;-66
2021/01/31 02:53:44;;;;;;;7.45;5.55;;;;;;;-2.65;75.67;97753.98;1841628;78;21104;-66
2021/01/31 02:56:19;;;;;;;4.97;4.28;;;;;;;-2.65;75.65;97766.70;1825740;78;22314;-67
2021/01/31 02:59:02;;;;;;;5.97;4.80;;;;;;;-2.66;75.12;97767.58;1806186;78;21089;-66
2021/01/31 03:01:47;;;;;;;6.10;4.58;;;;;;;-2.67;75.06;97772.69;1808134;78;21521;-66
2021/01/31 03:04:31;;;;;;;6.05;4.47;;;;;;;-2.72;74.58;97784.20;1780805;79;21140;-67
2021/01/31 03:07:07;;;;;;;5.12;4.55;;;;;;;-2.75;74.68;97802.48;1808495;79;21049;-67
2021/01/31 03:09:46;;;;;;;6.75;4.75;;;;;;;-2.77;74.37;97791.06;1808543;78;21393;-67
2021/01/31 03:12:23;;;;;;;5.45;4.45;;;;;;;-2.79;74.41;97794.89;1808481;79;21093;-66
2021/01/31 03:14:57;;;;;;;5.75;4.20;;;;;;;-2.81;74.29;97794.54;1808612;79;21033;-66
2021/01/31 03:17:33;;;;;;;5.25;4.42;;;;;;;-2.82;74.44;97797.95;1808444;79;21145;-67
2021/01/31 03:20:18;;;;;;;4.53;4.10;;;;;;;-2.85;74.27;97803.08;1808552;78;21057;-66
2021/01/31 03:22:57;;;;;;;4.58;4.08;;;;;;;-2.87;74.40;97813.27;1808509;79;21384;-67
2021/01/31 03:25:35;;;;;;;6.47;4.40;;;;;;;-2.88;74.46;97816.67;1808471;79;21143;-67
2021/01/31 03:28:03;;;;;;;4.67;4.05;;;;;;;-2.88;74.19;97824.73;1808506;79;21085;-67
2021/01/31 03:30:32;;;;;;;4.83;4.08;;;;;;;-2.89;74.40;97821.78;1808514;79;21053;-67
2021/01/31 03:33:14;;;;;;;4.03;3.40;;;;;;;-2.89;74.40;97824.33;1808509;79;21061;-67
2021/01/31 03:35:45;;;;;;;6.00;4.25;;;;;;;-2.90;74.53;97831.11;1759202;80;22159;-67
2021/01/31 03:38:27;;;;;;;4.87;3.67;;;;;;;-2.90;74.69;97827.73;1751070;80;21189;-68
2021/01/31 03:40:58;;;;;;;4.85;3.80;;;;;;;-2.92;74.63;97831.56;1722388;82;21527;-67
2021/01/31 03:43:26;;;;;;;6.20;4.83;;;;;;;-2.92;75.06;97837.92;1751204;81;21118;-67
2021/01/31 03:46:11;;;;;;;4.37;3.98;;;;;;;-2.93;75.32;97846.42;1751160;80;21113;-65
2021/01/31 03:48:47;;;;;;;6.22;4.58;;;;;;;-2.91;75.24;97839.61;1750674;82;21209;-66
2021/01/31 03:51:15;;;;;;;5.53;4.15;;;;;;;-2.90;75.43;97851.47;1750698;82;21145;-67
2021/01/31 03:53:43;;;;;;;6.47;4.37;;;;;;;-2.91;75.60;97854.03;1750688;80;21205;-65
2021/01/31 03:56:12;;;;;;;5.60;3.67;;;;;;;-2.91;75.55;97864.20;1750544;80;21079;-66
2021/01/31 03:58:40;;;;;;;6.17;4.33;;;;;;;-2.92;75.64;97859.98;1721608;82;21055;-66
2021/01/31 04:01:09;;;;;;;4.58;3.65;;;;;;;-2.92;75.80;97867.17;1750697;80;22301;-67
2021/01/31 04:03:45;;;;;;;4.97;4.47;;;;;;;-2.92;75.78;97871.42;1675651;82;21082;-66
2021/01/31 04:06:17;;;;;;;4.45;3.52;;;;;;;-2.93;75.79;97878.22;1746005;82;21178;-66
2021/01/31 04:08:47;;;;;;;5.63;4.10;;;;;;;-2.94;75.93;97883.32;1722438;82;21145;-66
2021/01/31 04:11:37;;;;;;;5.25;4.30;;;;;;;-2.94;76.04;97890.95;1750655;80;21110;-67
2021/01/31 04:14:23;;;;;;;4.80;4.28;;;;;;;-2.94;76.02;97900.70;1750733;82;22130;-67
2021/01/31 04:16:51;;;;;;;6.33;4.80;;;;;;;-2.95;76.15;97900.28;1750639;80;21062;-67
2021/01/31 04:19:20;;;;;;;5.20;4.00;;;;;;;-2.96;76.24;97899.87;1750707;81;21475;-67
2021/01/31 04:21:48;;;;;;;6.03;5.15;;;;;;;-2.98;76.15;97910.49;1750657;80;21496;-67
2021/01/31 04:24:16;;;;;;;6.50;4.70;;;;;;;-2.99;76.22;97922.80;1750636;82;21071;-67
2021/01/31 04:26:44;;;;;;;5.45;4.53;;;;;;;-3.00;76.29;97927.50;1750576;80;22339;-67
2021/01/31 04:29:12;;;;;;;7.15;5.20;;;;;;;-3.00;76.25;97924.12;1750537;82;20944;-67
2021/01/31 04:31:39;;;;;;;5.55;4.92;;;;;;;-3.03;76.30;97938.98;1750572;82;21491;-67
2021/01/31 04:34:07;;;;;;;6.53;5.42;;;;;;;-3.05;76.17;97939.86;1750676;80;21105;-67
2021/01/31 04:36:35;;;;;;;7.12;5.60;;;;;;;-3.09;76.05;97944.56;1756147;81;21538;-67
2021/01/31 04:39:04;;;;;;;8.70;6.20;;;;;;;-3.15;75.97;97948.84;1767544;81;21154;-67
2021/01/31 04:41:38;;;;;;;8.95;6.55;;;;;;;-3.17;76.14;97952.27;1767532;81;20968;-67
2021/01/31 04:44:06;;;;;;;9.30;6.83;;;;;;;-3.19;76.23;97959.06;1767563;80;21134;-67
2021/01/31 04:46:50;;;;;;;9.08;6.58;;;;;;;-3.21;76.19;97959.53;1767531;81;21142;-67
2021/01/31 04:49:48;;;;;;;9.33;7.28;;;;;;;-3.22;76.30;97973.11;1758309;80;21071;-67
2021/01/31 04:52:48;;;;;;;9.53;7.20;;;;;;;-3.23;76.19;97973.97;1767280;81;21832;-67
2021/01/31 04:55:49;;;;;;;9.68;6.47;;;;;;;-3.24;76.46;97978.20;1767431;81;21154;-67
2021/01/31 04:58:22;;;;;;;7.40;6.08;;;;;;;-3.24;76.49;97982.45;1767549;81;21095;-68
2021/01/31 05:01:01;;;;;;;7.28;6.08;;;;;;;-3.24;76.59;97990.92;1767763;81;21511;-68
2021/01/31 05:03:29;;;;;;;8.53;7.28;;;;;;;-3.19;76.54;98001.86;1767542;79;21075;-66
2021/01/31 05:06:04;;;;;;;8.78;7.12;;;;;;;-3.18;76.53;97998.89;1752405;81;21507;-67
2021/01/31 05:08:32;;;;;;;8.65;6.55;;;;;;;-3.17;76.59;98009.05;1767590;79;21487;-67
2021/01/31 05:11:04;;;;;;;8.15;6.72;;;;;;;-3.12;76.70;98011.13;1767607;81;21488;-66
2021/01/31 05:14:03;;;;;;;9.63;7.12;;;;;;;-3.13;76.62;98014.52;1767692;80;21063;-66
2021/01/31 05:16:31;;;;;;;8.75;5.75;;;;;;;-3.13;76.81;98020.88;1767518;80;21071;-68
2021/01/31 05:19:09;;;;;;;8.75;6.58;;;;;;;-3.12;76.55;98026.81;1767513;79;21438;-67
2021/01/31 05:21:36;;;;;;;10.63;7.03;;;;;;;-3.14;76.62;98034.87;1767491;80;21139;-67
2021/01/31 05:24:10;;;;;;;9.93;6.97;;;;;;;-3.16;76.71;98035.32;1767501;81;21193;-67
2021/01/31 05:26:41;;;;;;;10.00;7.33;;;;;;;-3.17;76.64;98047.63;1767601;80;21174;-67
2021/01/31 05:29:16;;;;;;;10.65;7.78;;;;;;;-3.21;76.70;98041.75;1767579;79;21075;-67
2021/01/31 05:32:08;;;;;;;11.88;8.05;;;;;;;-3.22;76.74;98051.50;1767540;81;21376;-67
2021/01/31 05:34:42;;;;;;;11.80;7.85;;;;;;;-3.20;76.87;98055.30;1767439;80;21142;-67
2021/01/31 05:37:20;;;;;;;7.47;5.65;;;;;;;-3.18;76.90;98058.22;1766036;79;21217;-67
2021/01/31 05:39:59;;;;;;;7.30;5.25;;;;;;;-3.14;76.72;98067.94;1764548;81;21103;-66
2021/01/31 05:42:32;;;;;;;9.10;6.78;;;;;;;-3.12;76.55;98065.80;1764532;80;21704;-66
2021/01/31 05:45:12;;;;;;;;;;;;;;;-3.12;76.66;98072.16;1767244;80;22267;-67
2021/01/31 05:47:42;;;;;;;11.35;7.33;;;;;;;-3.11;76.44;98074.27;1756144;81;20704;-66
2021/01/31 05:50:40;;;;;;;13.18;8.53;;;;;;;-3.10;76.44;98073.84;1756287;81;21468;-66
2021/01/31 05:53:32;;;;;;;16.67;10.88;;;;;;;-3.06;76.36;98083.98;1756129;81;21495;-67
2021/01/31 05:56:27;;;;;;;10.13;7.85;;;;;;;-3.04;76.25;98092.88;1756259;80;21157;-67
2021/01/31 05:59:03;;;;;;;10.58;7.65;;;;;;;-3.02;76.17;98097.09;1756261;81;22296;-67
2021/01/31 06:01:30;;;;;;;11.00;8.28;;;;;;;-3.01;76.24;98096.23;1753790;81;21100;-67
2021/01/31 06:04:14;;;;;;;10.05;7.30;;;;;;;-2.97;76.26;98104.22;1756153;80;21471;-67
2021/01/31 06:06:43;;;;;;;11.10;8.45;;;;;;;-2.94;76.35;98104.20;1756188;81;21490;-66
2021/01/31 06:09:37;;;;;;;9.43;6.95;;;;;;;-2.85;76.37;98108.37;1728647;81;21094;-67
2021/01/31 06:12:14;;;;;;;12.82;8.38;;;;;;;-2.80;76.14;98122.70;1756236;81;21349;-67
2021/01/31 06:14:51;;;;;;;12.50;8.65;;;;;;;-2.74;76.02;98124.78;1756212;81;21495;-67
2021/01/31 06:17:23;;;;;;;18.90;11.65;;;;;;;-2.69;76.27;98130.68;1754730;81;21498;-66
2021/01/31 06:19:59;;;;;;;10.13;7.20;;;;;;;-2.59;76.20;98124.63;1756223;80;21101;-66
2021/01/31 06:22:43;;;;;;;17.27;10.85;;;;;;;-2.53;75.99;98128.38;1730783;81;21542;-67
2021/01/31 06:25:19;;;;;;;38.63;24.32;;;;;;;-2.46;75.60;98136.38;1756150;81;21196;-68
2021/01/31 06:27:49;;;;;;;32.63;19.70;;;;;;;-2.44;75.28;98137.20;1753613;81;21109;-67
2021/01/31 06:30:27;;;;;;;37.15;22.65;;;;;;;-2.40;75.14;98146.50;1756096;81;21621;-66
2021/01/31 06:32:55;;;;;;;23.42;15.50;;;;;;;-2.34;75.35;98153.20;1756103;80;21671;-67
2021/01/31 06:35:24;;;;;;;29.10;18.20;;;;;;;-2.30;75.08;98154.87;1756107;81;21157;-68
2021/01/31 06:38:07;;;;;;;21.10;13.95;;;;;;;-2.26;75.03;98158.64;1752654;81;21553;-68
2021/01/31 06:40:50;;;;;;;19.48;11.18;;;;;;;-2.24;74.75;98159.47;1750209;82;21586;-67
2021/01/31 06:43:38;;;;;;;18.37;14.57;;;;;;;-2.20;74.63;98167.92;1750758;80;21125;-68
2021/01/31 06:46:22;;;;;;;18.98;14.33;;;;;;;-2.20;74.51;98176.84;1750512;81;21503;-67
2021/01/31 06:49:36;;;;;;;20.40;13.60;;;;;;;-2.20;74.66;98173.02;1750820;80;21063;-68
2021/01/31 06:52:21;;;;;;;15.65;9.85;;;;;;;-2.17;74.84;98176.34;1728659;80;21205;-67
2021/01/31 06:55:07;;;;;;;12.03;8.50;;;;;;;-2.12;74.53;98180.97;1750465;80;21086;-66
2021/01/31 06:57:49;;;;;;;18.07;11.75;;;;;;;-2.09;74.40;98173.30;1750420;81;21145;-67
2021/01/31 07:00:50;;;;;;;14.05;9.70;;;;;;;-2.05;74.30;98179.20;1750678;80;21569;-67
2021/01/31 07:03:41;;;;;;;12.68;9.00;;;;;;;-2.03;74.18;98180.46;1750471;80;21555;-67
2021/01/31 07:06:30;;;;;;;10.43;8.13;;;;;;;-2.04;74.51;98189.81;1750533;81;21208;-68
2021/01/31 07:09:24;;;;;;;9.58;7.03;;;;;;;-1.97;74.68;98199.47;1750471;80;21094;-67
2021/01/31 07:11:55;;;;;;;11.95;8.50;;;;;;;-1.92;74.14;98204.09;1750641;80;22294;-68
2021/01/31 07:14:40;;;;;;;11.73;8.13;;;;;;;-1.92;74.11;98204.09;1750699;82;21847;-67
2021/01/31 07:17:29;;;;;;;12.60;8.50;;;;;;;-1.91;74.15;98207.05;1749618;80;21090;-66
2021/01/31 07:20:22;;;;;;;11.43;8.50;;;;;;;-1.86;74.11;98211.67;1741029;82;21386;-68
2021/01/31 07:23:19;;;;;;;11.90;8.98;;;;;;;-1.83;73.98;98218.86;1750651;81;21075;-68
2021/01/31 07:25:51;;;;;;;11.48;8.33;;;;;;;-1.78;73.86;98221.33;1750681;80;21534;-66
2021/01/31 07:28:26;;;;;;;9.98;7.47;;;;;;;-1.72;73.95;98224.23;1750768;82;21066;-67
2021/01/31 07:31:14;;;;;;;12.37;8.23;;;;;;;-1.65;73.89;98227.14;1750677;82;21158;-66
2021/01/31 07:34:05;;;;;;;13.10;9.40;;;;;;;-1.58;73.31;98233.39;1750628;80;21195;-67
2021/01/31 07:36:37;;;;;;;13.08;9.80;;;;;;;-1.54;73.47;98242.70;1750562;80;21601;-68
2021/01/31 07:39:09;;;;;;;9.78;8.18;;;;;;;-1.50;73.37;98249.88;1766172;80;21153;-67
2021/01/31 07:41:43;;;;;;;13.50;9.13;;;;;;;-1.41;73.43;98253.17;1767730;81;21138;-67
2021/01/31 07:44:11;;;;;;;12.43;9.58;;;;;;;-1.28;73.28;98253.83;1766703;80;21130;-67
2021/01/31 07:46:39;;;;;;;15.53;10.40;;;;;;;-1.14;72.82;98257.45;1767583;81;21198;-68
2021/01/31 07:49:08;;;;;;;12.37;9.45;;;;;;;-1.05;72.71;98268.39;1767499;81;21552;-67
2021/01/31 07:51:43;;;;;;;12.35;9.08;;;;;;;-0.94;71.69;98264.83;1767549;81;21134;-67
2021/01/31 07:54:30;;;;;;;11.63;8.40;;;;;;;-0.86;71.46;98268.13;1767678;81;21063;-67
2021/01/31 07:57:28;;;;;;;15.15;9.83;;;;;;;-0.79;71.06;98270.53;1760162;79;21569;-67
2021/01/31 07:59:56;;;;;;;11.28;8.60;;;;;;;-0.72;70.92;98280.23;1767575;81;21331;-68
2021/01/31 08:02:42;;;;;;;12.65;8.73;;;;;;;-0.61;70.77;98287.74;1717904;81;21555;-68
2021/01/31 08:05:15;;;;;;;13.13;9.30;;;;;;;-0.56;70.70;98289.77;1767638;80;21075;-68
2021/01/31 08:08:07;;;;;;;12.73;9.35;;;;;;;-0.53;70.56;98293.55;1752577;81;21106;-67
2021/01/31 08:10:49;;;;;;;15.03;9.63;;;;;;;-0.49;70.38;98301.15;1767897;80;21568;-68
2021/01/31 08:13:40;;;;;;;11.50;9.08;;;;;;;-0.45;70.17;98303.23;1752464;81;21607;-68
2021/01/31 08:16:48;;;;;;;12.05;9.50;;;;;;;-0.43;70.04;98304.05;1767022;81;21150;-68
2021/01/31 08:19:23;;;;;;;13.48;9.03;;;;;;;-0.43;69.76;98310.44;1767468;80;21118;-68
2021/01/31 08:21:55;;;;;;;12.82;9.20;;;;;;;-0.43;69.86;98316.39;1767560;81;21075;-68
2021/01/31 08:25:07;;;;;;;11.83;8.95;;;;;;;-0.41;69.29;98324.87;1767661;80;21149;-67
2021/01/31 08:27:43;;;;;;;11.50;9.08;;;;;;;-0.36;69.73;98321.78;1767608;81;21363;-68
2021/01/31 08:30:41;;;;;;;12.80;9.40;;;;;;;-0.19;69.56;98321.50;1767502;79;21504;-68
2021/01/31 08:33:24;;;;;;;11.25;8.43;;;;;;;0.01;69.11;98326.27;1766026;80;21075;-68
2021/01/31 08:35:59;;;;;;;12.07;8.40;;;;;;;0.21;67.68;98329.75;1767634;81;21076;-68
2021/01/31 08:38:35;;;;;;;12.60;8.93;;;;;;;0.29;67.51;98330.47;1765421;81;21567;-68
2021/01/31 08:41:11;;;;;;;12.10;9.05;;;;;;;0.42;67.31;98334.47;1764371;80;21216;-68
2021/01/31 08:43:48;;;;;;;13.40;10.58;;;;;;;0.52;66.83;98337.27;1764542;80;21157;-68
2021/01/31 08:46:32;;;;;;;11.88;9.25;;;;;;;0.65;66.72;98344.27;1764447;81;21561;-68
2021/01/31 08:49:13;;;;;;;13.98;9.60;;;;;;;0.83;66.16;98350.29;1764628;81;21071;-69
2021/01/31 08:51:44;;;;;;;12.23;9.33;;;;;;;0.97;65.87;98349.59;1764687;81;21051;-68
2021/01/31 08:54:18;;;;;;;13.13;9.10;;;;;;;1.17;65.25;98356.84;1763618;81;21424;-69
2021/01/31 08:57:02;;;;;;;12.90;9.23;;;;;;;1.22;64.71;98361.41;1763672;80;21183;-69
2021/01/31 08:59:46;;;;;;;11.88;8.40;;;;;;;1.20;64.27;98363.63;1764629;81;21079;-68
2021/01/31 09:02:19;;;;;;;12.78;9.08;;;;;;;1.15;64.32;98371.84;1764575;80;21591;-69
2021/01/31 09:05:12;;;;;;;13.35;10.90;;;;;;;1.08;64.42;98377.52;1764724;80;21552;-67
2021/01/31 09:07:44;;;;;;;10.33;8.07;;;;;;;1.10;64.65;98377.48;1764779;81;22152;-68
2021/01/31 09:10:33;;;;;;;11.90;8.75;;;;;;;1.13;64.11;98385.11;1764436;81;21079;-69
2021/01/31 09:13:18;;;;;;;11.93;9.08;;;;;;;1.13;64.13;98382.11;1764487;80;21055;-68
2021/01/31 09:15:46;;;;;;;10.05;7.90;;;;;;;1.14;63.72;98382.95;1762696;81;21567;-69
2021/01/31 09:18:19;;;;;;;11.00;8.85;;;;;;;1.03;63.51;98387.00;1764442;81;21154;-68
2021/01/31 09:20:49;;;;;;;13.10;9.68;;;;;;;0.95;63.77;98387.61;1764714;80;22266;-68
2021/01/31 09:23:28;;;;;;;15.20;9.48;;;;;;;0.92;63.58;98388.95;1764388;81;21110;-66
2021/01/31 09:25:56;;;;;;;15.65;10.60;;;;;;;0.90;63.14;98395.38;1764439;81;21563;-68
2021/01/31 09:28:24;;;;;;;12.03;8.30;;;;;;;0.91;63.58;98403.91;1764435;81;21087;-68
2021/01/31 09:31:01;;;;;;;13.20;9.93;;;;;;;0.95;63.37;98406.38;1764491;81;21154;-69
2021/01/31 09:33:38;;;;;;;13.00;9.73;;;;;;;0.98;63.82;98408.04;1764457;81;21363;-69
2021/01/31 09:36:33;;;;;;;15.10;10.30;;;;;;;1.00;63.15;98407.55;1764441;81;21138;-68
2021/01/31 09:39:04;;;;;;;17.30;11.55;;;;;;;0.95;62.75;98415.77;1763953;80;21492;-69
2021/01/31 09:41:33;;;;;;;16.87;11.18;;;;;;;0.98;63.47;98421.69;1764457;81;21477;-69
2021/01/31 09:44:03;;;;;;;15.23;10.82;;;;;;;1.08;63.39;98418.48;1764455;80;21071;-69
2021/01/31 09:46:30;;;;;;;13.00;10.15;;;;;;;1.14;62.30;98420.09;1764431;81;22760;-69
2021/01/31 09:49:04;;;;;;;13.88;9.48;;;;;;;1.08;62.84;98424.89;1764309;81;21081;-69
2021/01/31 09:51:31;;;;;;;14.30;9.75;;;;;;;1.07;61.46;98427.04;1764453;81;21087;-69
2021/01/31 09:54:19;;;;;;;13.68;8.98;;;;;;;1.00;62.31;98424.19;1747175;81;21063;-68
2021/01/31 09:56:52;;;;;;;13.75;8.98;;;;;;;1.00;62.25;98419.06;1764406;81;21067;-69
2021/01/31 09:59:30;;;;;;;11.50;8.03;;;;;;;0.99;61.89;98414.41;1764482;81;22272;-68
2021/01/31 10:02:17;;;;;;;11.30;7.87;;;;;;;0.98;61.55;98417.84;1764395;81;21094;-68
2021/01/31 10:04:46;;;;;;;13.65;9.58;;;;;;;0.94;61.33;98417.92;1763992;80;21154;-69
2021/01/31 10:07:17;;;;;;;13.45;10.10;;;;;;;0.87;61.72;98417.63;1764512;81;21178;-69
2021/01/31 10:09:50;;;;;;;12.93;8.70;;;;;;;0.86;62.08;98421.91;1763106;81;21604;-68
2021/01/31 10:12:37;;;;;;;13.65;9.15;;;;;;;0.88;61.97;98424.00;1764663;80;26102;-69
2021/01/31 10:15:08;;;;;;;15.55;10.25;;;;;;;0.85;62.30;98431.73;1764424;81;21178;-68
2021/01/31 10:17:44;;;;;;;21.93;12.43;;;;;;;0.86;62.05;98437.70;1764398;81;21564;-69
2021/01/31 10:20:37;;;;;;;16.40;10.70;;;;;;;0.87;62.51;98438.11;1873517;76;22691;-68
2021/01/31 10:23:18;;;;;;;16.60;11.08;;;;;;;0.80;62.51;98441.20;1841592;78;21116;-69
2021/01/31 10:26:00;;;;;;;20.92;13.48;;;;;;;0.81;62.66;98440.34;1841647;78;22001;-68
2021/01/31 10:28:34;;;;;;;19.20;12.93;;;;;;;0.84;62.95;98444.13;1811927;78;21479;-70
2021/01/31 10:31:02;;;;;;;17.73;12.30;;;;;;;0.88;63.12;98452.59;1841604;77;21040;-68
2021/01/31 10:33:43;;;;;;;20.52;13.90;;;;;;;0.94;63.31;98456.33;1841609;78;21478;-69
2021/01/31 10:36:24;;;;;;;16.60;12.10;;;;;;;0.98;62.74;98449.00;1839478;77;21180;-68
2021/01/31 10:38:55;;;;;;;18.57;11.65;;;;;;;0.98;62.80;98455.41;1841486;77;22611;-68
2021/01/31 10:41:23;;;;;;;18.20;12.37;;;;;;;1.03;63.32;98457.41;1840780;78;20962;-68
2021/01/31 10:44:00;;;;;;;18.20;11.73;;;;;;;1.12;62.81;98452.56;1841464;77;21151;-69
2021/01/31 10:46:31;;;;;;;19.52;13.30;;;;;;;1.20;62.65;98457.11;1841286;78;21509;-68
2021/01/31 10:48:59;;;;;;;21.12;14.78;;;;;;;1.22;62.58;98462.58;1841535;77;21054;-68
2021/01/31 10:51:32;;;;;;;22.45;13.75;;;;;;;1.23;62.60;98457.86;1841428;78;21414;-68
2021/01/31 10:54:02;;;;;;;16.27;10.93;;;;;;;1.25;62.33;98459.11;1841585;77;21069;-70
2021/01/31 10:56:29;;;;;;;17.50;11.03;;;;;;;1.17;62.32;98460.57;1823279;78;21057;-69
2021/01/31 10:58:59;;;;;;;17.00;12.00;;;;;;;1.10;61.62;98462.83;1808399;79;21073;-69
2021/01/31 11:01:29;;;;;;;17.98;11.38;;;;;;;0.97;62.29;98458.39;1808495;79;21490;-68
2021/01/31 11:03:57;;;;;;;18.73;12.55;;;;;;;0.96;62.23;98454.59;1808374;78;21361;-68
2021/01/31 11:06:27;;;;;;;16.67;11.75;;;;;;;0.90;62.26;98457.25;1808394;79;21506;-68
2021/01/31 11:08:56;;;;;;;16.95;11.85;;;;;;;0.83;62.38;98454.39;1808432;79;21120;-68
2021/01/31 11:11:25;;;;;;;15.98;10.72;;;;;;;0.81;62.40;98455.70;1808394;79;21160;-69
2021/01/31 11:13:54;;;;;;;14.78;10.38;;;;;;;0.80;61.94;98461.69;1808442;78;21113;-68
2021/01/31 11:16:21;;;;;;;15.90;11.30;;;;;;;0.75;62.02;98460.95;1808374;79;21331;-68
2021/01/31 11:19:07;;;;;;;17.15;11.48;;;;;;;0.68;61.91;98456.36;1810357;79;21486;-69
2021/01/31 11:21:35;;;;;;;15.72;10.40;;;;;;;0.61;62.18;98450.94;1814097;78;21108;-69
2021/01/31 11:24:04;;;;;;;16.90;10.98;;;;;;;0.57;62.35;98445.50;1814065;79;21143;-69
2021/01/31 11:26:32;;;;;;;16.05;10.85;;;;;;;0.56;62.44;98450.20;1814145;79;21180;-69
2021/01/31 11:29:01;;;;;;;15.30;10.50;;;;;;;0.55;62.54;98443.83;1814082;78;21197;-72
2021/01/31 11:31:28;;;;;;;17.60;11.35;;;;;;;0.56;62.34;98440.41;1813515;79;21089;-70
2021/01/31 11:33:56;;;;;;;17.48;11.28;;;;;;;0.60;62.70;98438.20;1813540;79;21049;-69
2021/01/31 11:36:24;;;;;;;15.93;11.08;;;;;;;0.68;62.75;98432.05;1813542;78;21132;-68
2021/01/31 11:38:52;;;;;;;16.23;11.40;;;;;;;0.74;62.40;98440.50;1813535;79;21124;-69
2021/01/31 11:41:20;;;;;;;17.17;11.60;;;;;;;0.75;62.43;98439.20;1813511;78;22861;-68
2021/01/31 11:43:48;;;;;;;17.57;10.90;;;;;;;0.77;62.42;98442.58;1813458;78;21116;-70
2021/01/31 11:46:16;;;;;;;15.95;11.10;;;;;;;0.79;62.29;98451.06;1813552;78;21049;-68
2021/01/31 11:48:45;;;;;;;19.20;12.30;;;;;;;0.87;62.51;98453.47;1813519;78;21116;-69
2021/01/31 11:51:13;;;;;;;17.32;12.00;;;;;;;0.93;62.37;98453.36;1813525;79;21156;-72
2021/01/31 11:53:41;;;;;;;16.85;11.60;;;;;;;1.03;62.11;98456.13;1813489;79;21340;-70
2021/01/31 11:56:10;;;;;;;18.87;12.33;;;;;;;1.10;61.74;98455.59;1813334;77;21069;-68
2021/01/31 11:58:38;;;;;;;20.32;12.85;;;;;;;1.12;61.46;98453.41;1813577;79;21478;-68
2021/01/31 12:01:06;;;;;;;18.65;11.97;;;;;;;1.07;61.34;98448.80;1813495;78;21069;-69
2021/01/31 12:03:34;;;;;;;21.97;13.83;;;;;;;1.06;61.25;98455.23;1813537;78;21097;-69
2021/01/31 12:06:02;;;;;;;21.77;14.20;;;;;;;1.03;61.19;98453.57;1813488;79;21124;-68
2021/01/31 12:08:30;;;;;;;17.70;12.13;;;;;;;0.96;61.27;98458.42;1813438;79;21096;-68
2021/01/31 12:10:58;;;;;;;18.55;12.70;;;;;;;0.88;61.43;98464.11;1813515;79;21596;-68